Time;durP1;ratioP1;P1;durP2;ratioP2;P2;SDS_P1;SDS_P2;PMS_P1;PMS_P2;Temp;Humidity;BMP_temperature;BMP_pressure;BME280_temperature;BME280_humidity;BME280_pressure;Samples;Min_cycle;Max_cycle;Signal;HPM_P1;HPM_P2
2022/08/30 00:01:26;;;;;;;;;3.50;2.50;;;;;22.43;38.52;101477.84;5096407;27;46372;-83
2022/08/30 00:03:53;;;;;;;;;3.50;2.25;;;;;22.39;39.25;101476.38;5078531;27;45555;-83
2022/08/30 00:06:20;;;;;;;;;1.50;1.50;;;;;22.40;39.80;101475.44;5078572;27;45463;-83
2022/08/30 00:08:47;;;;;;;;;3.00;1.75;;;;;22.38;38.61;101477.31;5097246;27;45794;-83
2022/08/30 00:11:16;;;;;;;;;3.25;2.25;;;;;22.32;38.47;101485.69;5096706;27;47063;-83
2022/08/30 00:13:44;;;;;;;;;2.25;2.25;;;;;22.30;38.24;101484.94;5096741;27;45459;-83
2022/08/30 00:16:11;;;;;;;;;5.50;2.25;;;;;22.28;39.09;101498.28;5078923;27;45422;-83
2022/08/30 00:18:37;;;;;;;;;5.50;3.50;;;;;22.22;39.92;101496.03;5097083;27;45401;-83
2022/08/30 00:21:03;;;;;;;;;3.25;3.25;;;;;22.24;38.62;101494.97;5078103;27;46617;-83
2022/08/30 00:23:29;;;;;;;;;3.25;3.00;;;;;22.25;38.66;101487.88;5078207;27;45434;-83
2022/08/30 00:25:54;;;;;;;;;4.25;2.00;;;;;22.25;39.07;101493.19;5095877;27;45321;-83
2022/08/30 00:28:19;;;;;;;;;3.00;3.00;;;;;22.18;40.01;101484.78;5096101;27;63520;-83
2022/08/30 00:30:45;;;;;;;;;2.50;2.00;;;;;22.26;38.73;101496.72;5095362;27;74204;-83
2022/08/30 00:33:12;;;;;;;;;3.25;3.25;;;;;22.26;39.25;101494.06;5077793;27;45465;-83
2022/08/30 00:35:38;;;;;;;;;5.25;3.00;;;;;22.30;38.93;101501.69;5095817;27;45394;-83
2022/08/30 00:38:04;;;;;;;;;3.50;3.25;;;;;22.28;38.75;101484.19;5096718;27;45417;-83
2022/08/30 00:40:30;;;;;;;;;4.75;3.00;;;;;22.26;38.76;101478.16;5078490;27;45421;-83
2022/08/30 00:42:57;;;;;;;;;2.25;2.25;;;;;22.24;38.84;101476.41;5095644;27;66700;-83
2022/08/30 00:45:29;;;;;;;;;4.00;4.00;;;;;22.22;38.73;101475.66;5096876;27;45393;-83
2022/08/30 00:47:55;;;;;;;;;3.00;2.25;;;;;22.19;38.92;101472.34;5097310;27;45519;-83
2022/08/30 00:50:24;;;;;;;;;4.25;2.50;;;;;22.21;38.77;101473.97;5096812;27;46236;-83
2022/08/30 00:52:52;;;;;;;;;3.00;2.50;;;;;22.14;38.90;101467.38;5096689;27;45247;-84
2022/08/30 00:55:17;;;;;;;;;10.25;3.00;;;;;22.17;40.44;101476.91;5096159;27;45279;-83
2022/08/30 00:57:44;;;;;;;;;5.50;3.25;;;;;22.12;39.36;101465.75;5078042;27;45365;-83
2022/08/30 01:00:11;;;;;;;;;5.75;3.50;;;;;22.11;39.58;101466.72;5060758;27;47682;-83
2022/08/30 01:02:37;;;;;;;;;3.75;3.00;;;;;22.16;39.61;101475.22;5077304;27;45479;-83
2022/08/30 01:05:04;;;;;;;;;2.50;2.50;;;;;22.12;39.29;101473.72;5078146;27;45350;-83
2022/08/30 01:07:29;;;;;;;;;1.75;1.50;;;;;22.10;39.28;101480.91;5077436;27;45570;-83
2022/08/30 01:09:55;;;;;;;;;4.75;3.75;;;;;22.16;38.82;101489.34;5076877;27;69769;-83
2022/08/30 01:12:22;;;;;;;;;4.50;2.50;;;;;22.12;40.27;101476.34;5077438;27;45530;-83
2022/08/30 01:14:48;;;;;;;;;4.50;4.50;;;;;22.16;39.17;101476.06;5095792;27;45529;-83
2022/08/30 01:17:14;;;;;;;;;3.25;2.00;;;;;22.10;39.58;101473.84;5076974;27;45484;-82
2022/08/30 01:19:44;;;;;;;;;6.25;3.25;;;;;22.20;39.53;101488.16;5077084;27;46339;-82
2022/08/30 01:22:24;;;;;;;;;4.25;3.75;;;;;22.22;39.41;101483.59;5060469;27;45662;-83
2022/08/30 01:24:51;;;;;;;;;2.75;1.50;;;;;22.19;40.44;101486.47;5095849;27;45613;-83
2022/08/30 01:27:17;;;;;;;;;3.25;2.50;;;;;22.22;39.46;101490.72;5077415;27;45451;-82
2022/08/30 01:29:43;;;;;;;;;6.25;3.75;;;;;22.21;39.32;101500.50;5077297;27;45548;-83
2022/08/30 01:32:19;;;;;;;;;5.25;4.50;;;;;22.18;39.13;101499.84;5077012;27;45331;-83
2022/08/30 01:34:47;;;;;;;;;5.00;3.00;;;;;22.16;38.88;101499.94;5078368;27;45419;-83
2022/08/30 01:37:20;;;;;;;;;5.00;3.00;;;;;22.15;39.26;101505.34;5080017;27;45424;-83
2022/08/30 01:39:46;;;;;;;;;5.75;3.25;;;;;22.12;39.10;101505.53;5080340;27;45558;-83
2022/08/30 01:42:16;;;;;;;;;5.00;3.00;;;;;22.07;39.02;101499.69;5098738;27;45745;-83
2022/08/30 01:44:43;;;;;;;;;5.50;2.00;;;;;21.96;39.09;101495.09;5080743;27;45443;-83
2022/08/30 01:47:09;;;;;;;;;4.00;4.00;;;;;21.89;39.09;101493.78;5080194;27;45548;-83
2022/08/30 01:49:34;;;;;;;;;3.75;2.50;;;;;21.92;39.21;101502.38;5080205;27;46313;-83
2022/08/30 01:51:59;;;;;;;;;4.75;3.00;;;;;21.91;39.26;101499.81;5097975;27;63668;-83
2022/08/30 01:54:25;;;;;;;;;6.00;3.00;;;;;21.83;39.33;101487.91;5079348;27;69325;-82
2022/08/30 01:56:50;;;;;;;;;3.00;3.00;;;;;21.84;39.15;101500.22;5063214;27;53300;-83
2022/08/30 01:59:16;;;;;;;;;4.00;3.25;;;;;21.88;39.65;101500.03;5079956;27;46497;-83
2022/08/30 02:01:41;;;;;;;;;4.25;2.75;;;;;21.89;39.51;101497.28;5097990;27;45422;-83
2022/08/30 02:04:08;;;;;;;;;4.25;2.00;;;;;21.92;40.29;101496.25;5098455;27;45336;-83
2022/08/30 02:06:33;;;;;;;;;4.00;4.00;;;;;21.90;39.94;101499.00;5080279;27;45360;-83
2022/08/30 02:08:59;;;;;;;;;5.00;3.00;;;;;21.89;39.66;101501.72;5098207;27;46952;-83
2022/08/30 02:11:25;;;;;;;;;5.00;4.75;;;;;21.94;39.93;101519.03;5098344;27;45483;-83
2022/08/30 02:13:51;;;;;;;;;4.50;3.00;;;;;21.98;39.62;101530.28;5079876;27;45303;-83
2022/08/30 02:16:20;;;;;;;;;8.50;3.25;;;;;21.96;39.90;101534.84;5098129;27;45269;-83
2022/08/30 02:18:45;;;;;;;;;3.25;2.00;;;;;21.99;40.06;101532.84;5098161;27;47128;-83
2022/08/30 02:21:11;;;;;;;;;5.25;3.25;;;;;22.11;39.81;101536.50;5097065;27;69058;-83
2022/08/30 02:23:37;;;;;;;;;4.25;3.75;;;;;22.10;40.29;101532.16;5080138;27;45394;-83
2022/08/30 02:26:03;;;;;;;;;4.00;4.00;;;;;22.09;41.28;101532.25;5098012;27;45433;-83
2022/08/30 02:28:28;;;;;;;;;4.25;4.25;;;;;22.04;44.12;101532.53;5079901;27;45373;-83
2022/08/30 02:30:54;;;;;;;;;6.00;4.00;;;;;22.00;44.97;101518.63;5097527;27;46974;-81
2022/08/30 02:33:19;;;;;;;;;8.00;5.75;;;;;21.79;46.59;101506.78;5078906;27;57907;-80
2022/08/30 02:35:44;;;;;;;;;9.50;5.75;;;;;21.57;49.25;101518.72;5097752;27;45511;-79
2022/08/30 02:38:10;;;;;;;;;7.00;5.50;;;;;21.30;52.11;101504.53;5096739;27;73334;-79
2022/08/30 02:40:35;;;;;;;;;9.50;6.75;;;;;21.19;53.15;101523.72;5096977;27;66767;-79
2022/08/30 02:43:00;;;;;;;;;7.50;7.00;;;;;21.05;53.87;101520.13;5097498;27;55523;-80
2022/08/30 02:45:26;;;;;;;;;6.75;5.75;;;;;20.91;55.32;101513.97;5096370;27;70642;-79
2022/08/30 02:47:52;;;;;;;;;8.00;5.50;;;;;20.82;56.46;101512.72;5096692;27;46568;-80
2022/08/30 02:50:17;;;;;;;;;8.50;5.75;;;;;20.74;56.12;101505.22;5097660;27;45407;-80
2022/08/30 02:52:43;;;;;;;;;7.25;7.00;;;;;20.79;56.65;101515.56;5097828;27;45935;-81
2022/08/30 02:55:09;;;;;;;;;9.25;6.00;;;;;20.78;57.47;101514.72;5097445;27;45576;-81
2022/08/30 02:57:36;;;;;;;;;6.00;6.00;;;;;20.72;57.08;101524.81;5097663;27;46104;-81
2022/08/30 03:00:05;;;;;;;;;8.50;6.25;;;;;20.46;56.45;101517.41;5079054;27;45447;-81
2022/08/30 03:02:30;;;;;;;;;6.50;5.00;;;;;20.37;56.77;101527.66;5097647;27;45498;-81
2022/08/30 03:04:56;;;;;;;;;6.25;6.25;;;;;20.32;58.24;101512.09;5096696;27;65111;-81
2022/08/30 03:07:21;;;;;;;;;6.50;6.00;;;;;20.38;58.96;101505.59;5097238;27;46096;-81
2022/08/30 03:09:47;;;;;;;;;6.75;6.25;;;;;20.30;60.65;101513.97;5097136;27;45282;-81
2022/08/30 03:12:12;;;;;;;;;9.00;7.00;;;;;20.25;60.00;101539.81;5096455;27;68429;-81
2022/08/30 03:14:38;;;;;;;;;8.25;6.00;;;;;20.02;59.25;101522.59;5097131;27;45346;-81
2022/08/30 03:17:05;;;;;;;;;7.50;5.00;;;;;19.85;59.82;101524.38;5078053;27;71724;-81
2022/08/30 03:19:31;;;;;;;;;8.25;7.25;;;;;19.79;61.13;101506.25;5079002;27;45881;-81
2022/08/30 03:21:56;;;;;;;;;9.50;6.25;;;;;19.91;61.58;101504.72;5097237;27;45435;-81
2022/08/30 03:24:21;;;;;;;;;6.00;5.75;;;;;19.90;62.78;101495.94;5096900;27;48205;-81
2022/08/30 03:26:47;;;;;;;;;6.00;6.00;;;;;19.94;61.18;101503.69;5077785;27;71512;-81
2022/08/30 03:29:12;;;;;;;;;10.50;6.00;;;;;19.94;62.32;101499.25;5095807;27;70909;-81
2022/08/30 03:31:38;;;;;;;;;7.25;5.50;;;;;19.98;61.68;101492.00;5097020;27;45443;-81
2022/08/30 03:34:04;;;;;;;;;7.00;7.00;;;;;20.10;61.81;101492.16;5096747;27;51882;-81
2022/08/30 03:36:30;;;;;;;;;7.00;6.00;;;;;20.07;60.98;101465.91;5078549;27;47136;-81
2022/08/30 03:38:55;;;;;;;;;7.75;7.00;;;;;20.13;61.23;101469.13;5097025;27;45453;-81
2022/08/30 03:41:20;;;;;;;;;10.00;8.00;;;;;20.02;61.20;101464.47;5077793;27;65792;-81
2022/08/30 03:43:46;;;;;;;;;6.00;6.00;;;;;19.97;61.87;101461.25;5078287;27;45348;-80
2022/08/30 03:46:12;;;;;;;;;5.75;5.75;;;;;19.92;61.17;101458.84;5096813;27;45863;-81
2022/08/30 03:48:37;;;;;;;;;6.25;6.00;;;;;19.87;62.74;101460.91;5078427;27;45733;-80
2022/08/30 03:51:03;;;;;;;;;10.25;6.25;;;;;19.90;61.66;101458.94;5096784;27;45396;-81
2022/08/30 03:53:28;;;;;;;;;6.50;6.00;;;;;19.80;61.77;101444.56;5096845;27;45354;-81
2022/08/30 03:55:54;;;;;;;;;5.00;4.75;;;;;19.83;60.44;101443.53;5095372;27;71987;-81
2022/08/30 03:58:19;;;;;;;;;9.75;6.50;;;;;19.65;61.39;101427.75;5095895;27;57090;-81
2022/08/30 04:00:45;;;;;;;;;7.00;7.00;;;;;19.58;60.79;101428.19;5095604;27;69294;-81
2022/08/30 04:03:10;;;;;;;;;7.00;6.50;;;;;19.43;61.50;101419.34;5096603;27;45377;-81
2022/08/30 04:05:35;;;;;;;;;9.00;6.25;;;;;19.41;62.32;101424.69;5095421;27;74409;-81
2022/08/30 04:08:01;;;;;;;;;8.75;7.00;;;;;19.32;61.23;101425.19;5076973;27;74388;-81
2022/08/30 04:10:26;;;;;;;;;11.00;6.00;;;;;19.30;62.33;101429.72;5096465;27;45431;-81
2022/08/30 04:12:52;;;;;;;;;6.75;4.75;;;;;19.24;61.23;101428.25;5076600;27;70654;-82
2022/08/30 04:15:18;;;;;;;;;7.00;5.75;;;;;19.24;60.81;101432.66;5078249;27;45393;-82
2022/08/30 04:17:44;;;;;;;;;10.25;6.25;;;;;19.15;62.47;101420.84;5096439;27;45790;-81
2022/08/30 04:20:09;;;;;;;;;3.75;3.75;;;;;19.09;61.28;101407.97;5078041;27;45642;-81
2022/08/30 04:22:35;;;;;;;;;11.50;6.75;;;;;19.10;63.22;101417.59;5096386;27;45477;-82
2022/08/30 04:25:02;;;;;;;;;7.50;7.50;;;;;19.07;63.07;101430.94;5078026;27;46164;-81
2022/08/30 04:27:27;;;;;;;;;8.25;7.00;;;;;19.12;62.63;101442.94;5095893;27;45244;-81
2022/08/30 04:29:54;;;;;;;;;10.00;7.25;;;;;19.09;62.31;101442.25;5096080;27;46937;-82
2022/08/30 04:32:20;;;;;;;;;11.25;7.50;;;;;19.09;63.83;101432.59;5078371;27;45370;-82
2022/08/30 04:34:45;;;;;;;;;6.75;6.00;;;;;19.14;63.97;101435.81;5096169;27;46210;-82
2022/08/30 04:37:10;;;;;;;;;8.75;7.00;;;;;19.18;63.95;101433.00;5095125;27;67909;-82
2022/08/30 04:39:36;;;;;;;;;5.75;5.75;;;;;19.25;64.89;101437.03;5095933;27;49333;-81
2022/08/30 04:42:02;;;;;;;;;7.00;5.00;;;;;19.37;63.93;101440.78;5077511;27;45626;-82
2022/08/30 04:44:27;;;;;;;;;6.75;6.00;;;;;19.41;64.25;101437.91;5077912;27;45473;-82
2022/08/30 04:46:53;;;;;;;;;8.00;6.00;;;;;19.41;63.97;101434.38;5095974;27;45361;-81
2022/08/30 04:49:19;;;;;;;;;7.50;5.50;;;;;19.36;64.54;101420.59;5077819;27;45317;-82
2022/08/30 04:51:44;;;;;;;;;8.00;7.00;;;;;19.34;63.49;101426.81;5077698;27;45404;-82
2022/08/30 04:54:09;;;;;;;;;5.00;5.00;;;;;19.29;63.01;101426.19;5095855;27;46196;-82
2022/08/30 04:56:35;;;;;;;;;7.75;7.75;;;;;19.29;64.42;101423.56;5095281;27;45475;-82
2022/08/30 04:59:02;;;;;;;;;6.00;6.00;;;;;19.29;64.68;101439.41;5095914;27;45401;-82
2022/08/30 05:01:30;;;;;;;;;6.50;5.50;;;;;19.26;65.16;101430.78;5095906;27;45345;-82
2022/08/30 05:03:56;;;;;;;;;8.00;6.00;;;;;19.17;64.71;101423.38;5077591;27;46402;-82
2022/08/30 05:06:23;;;;;;;;;4.75;4.50;;;;;19.15;64.08;101424.31;5077491;27;45464;-81
2022/08/30 05:08:48;;;;;;;;;9.75;6.25;;;;;19.18;64.51;101435.66;5095871;27;45372;-82
2022/08/30 05:11:15;;;;;;;;;5.25;4.25;;;;;19.19;65.10;101437.38;5096623;27;45567;-82
2022/08/30 05:13:41;;;;;;;;;8.75;5.50;;;;;19.22;65.70;101442.47;5099000;27;47492;-82
2022/08/30 05:16:07;;;;;;;;;5.00;5.00;;;;;19.21;64.39;101451.31;5099230;27;45298;-82
2022/08/30 05:18:34;;;;;;;;;7.75;6.50;;;;;19.19;64.77;101453.19;5099316;27;45293;-81
2022/08/30 05:21:09;;;;;;;;;7.25;6.50;;;;;19.12;64.32;101445.59;5099230;27;45287;-82
2022/08/30 05:23:36;;;;;;;;;8.75;6.75;;;;;19.14;64.43;101456.06;5098738;27;46285;-82
2022/08/30 05:26:11;;;;;;;;;7.25;6.25;;;;;19.10;65.45;101451.91;5080707;27;45479;-82
2022/08/30 05:28:36;;;;;;;;;11.75;7.00;;;;;19.15;64.67;101463.06;5080909;27;45377;-81
2022/08/30 05:31:02;;;;;;;;;8.75;5.75;;;;;19.21;64.51;101475.06;5098939;27;47028;-82
2022/08/30 05:33:28;;;;;;;;;10.00;8.50;;;;;19.13;63.56;101459.66;5080462;27;45359;-82
2022/08/30 05:35:53;;;;;;;;;8.50;5.75;;;;;19.13;64.53;101463.13;5080482;27;45368;-82
2022/08/30 05:38:19;;;;;;;;;7.00;6.50;;;;;19.16;64.09;101462.13;5079612;27;65105;-81
2022/08/30 05:40:44;;;;;;;;;6.25;6.25;;;;;19.25;63.87;101473.97;5079728;27;67281;-82
2022/08/30 05:43:10;;;;;;;;;6.75;6.00;;;;;19.25;63.99;101474.81;5098528;27;49587;-82
2022/08/30 05:45:36;;;;;;;;;7.50;6.50;;;;;19.24;63.55;101470.50;5098716;27;45695;-82
2022/08/30 05:48:03;;;;;;;;;7.75;6.75;;;;;19.23;63.82;101468.78;5080478;27;45495;-82
2022/08/30 05:50:28;;;;;;;;;9.25;7.50;;;;;19.22;63.27;101474.13;5098617;27;45514;-82
2022/08/30 05:52:54;;;;;;;;;7.50;6.00;;;;;19.25;61.86;101482.72;5079759;27;49267;-81
2022/08/30 05:55:19;;;;;;;;;9.50;6.25;;;;;19.18;61.44;101467.31;5097640;27;62385;-82
2022/08/30 05:57:44;;;;;;;;;8.00;7.00;;;;;19.27;61.96;101494.06;5097991;27;60458;-77
2022/08/30 06:00:16;;;;;;;;;6.00;6.00;;;;;19.27;62.15;101493.22;5097650;27;67040;-77
2022/08/30 06:02:42;;;;;;;;;7.75;7.25;;;;;19.24;62.93;101478.41;5098201;27;46534;-77
2022/08/30 06:05:09;;;;;;;;;6.50;6.00;;;;;19.32;63.30;101493.84;5098592;27;45354;-77
2022/08/30 06:07:35;;;;;;;;;9.25;7.25;;;;;19.36;63.39;101492.72;5098120;27;45268;-77
2022/08/30 06:10:00;;;;;;;;;9.25;7.00;;;;;19.40;61.60;101488.97;5098513;27;45341;-77
2022/08/30 06:12:26;;;;;;;;;6.50;6.00;;;;;19.42;60.30;101486.25;5098210;27;45389;-78
2022/08/30 06:14:51;;;;;;;;;7.50;5.25;;;;;19.45;60.50;101486.09;5097284;27;68451;-78
2022/08/30 06:17:17;;;;;;;;;8.00;6.00;;;;;19.43;61.45;101475.63;5097745;27;60352;-77
2022/08/30 06:19:42;;;;;;;;;10.00;7.00;;;;;19.47;60.80;101485.06;5097244;27;67832;-77
2022/08/30 06:22:07;;;;;;;;;10.25;6.00;;;;;19.53;60.26;101491.81;5096604;27;56369;-77
2022/08/30 06:24:35;;;;;;;;;12.25;6.75;;;;;19.54;59.97;101490.88;5079353;27;45451;-78
2022/08/30 06:27:00;;;;;;;;;9.50;5.00;;;;;19.60;59.41;101492.34;5098041;27;45474;-78
2022/08/30 06:29:26;;;;;;;;;9.00;8.50;;;;;19.65;59.47;101495.53;5098025;27;45392;-77
2022/08/30 06:31:51;;;;;;;;;7.25;6.25;;;;;19.59;58.21;101490.63;5079457;27;47243;-78
2022/08/30 06:34:17;;;;;;;;;10.00;7.00;;;;;19.62;58.53;101487.81;5097945;27;45571;-77
2022/08/30 06:36:43;;;;;;;;;5.25;5.25;;;;;19.56;57.68;101483.72;5097563;27;45345;-78
2022/08/30 06:39:08;;;;;;;;;8.25;7.00;;;;;19.57;58.93;101493.34;5097835;27;45573;-77
2022/08/30 06:41:36;;;;;;;;;9.25;5.00;;;;;19.60;57.46;101492.34;5079604;27;47126;-78
2022/08/30 06:44:03;;;;;;;;;9.00;6.00;;;;;19.63;58.67;101489.50;5097796;27;45491;-78
2022/08/30 06:46:31;;;;;;;;;10.00;7.25;;;;;19.68;59.39;101495.38;5097779;27;45582;-78
2022/08/30 06:48:57;;;;;;;;;11.00;7.50;;;;;19.72;59.07;101484.63;5097758;27;45586;-78
2022/08/30 06:51:25;;;;;;;;;7.25;6.00;;;;;19.80;58.99;101494.75;5078795;27;47583;-77
2022/08/30 06:53:51;;;;;;;;;7.75;6.75;;;;;19.84;57.72;101492.78;5097838;27;45981;-77
2022/08/30 06:56:17;;;;;;;;;6.50;6.00;;;;;19.78;58.21;101477.25;5097567;27;45333;-78
2022/08/30 06:58:43;;;;;;;;;9.00;6.00;;;;;19.84;57.91;101498.91;5097665;27;45393;-78
2022/08/30 07:01:12;;;;;;;;;8.50;6.50;;;;;19.84;57.75;101490.16;5097551;27;45448;-78
2022/08/30 07:03:37;;;;;;;;;7.00;7.00;;;;;19.91;58.33;101492.34;5097570;27;45431;-78
2022/08/30 07:06:03;;;;;;;;;8.25;6.00;;;;;19.91;58.28;101495.00;5096274;27;69130;-77
2022/08/30 07:08:28;;;;;;;;;9.50;7.25;;;;;19.99;56.17;101499.84;5097557;27;45389;-77
2022/08/30 07:10:54;;;;;;;;;7.25;7.25;;;;;19.96;57.00;101494.72;5079096;27;45756;-77
2022/08/30 07:13:20;;;;;;;;;7.50;6.00;;;;;20.00;56.20;101501.56;5102345;27;57703;-78
2022/08/30 07:15:47;;;;;;;;;7.25;7.25;;;;;20.08;57.56;101506.41;5115621;27;45469;-78
2022/08/30 07:20:58;;;;;;;;;9.75;7.00;;;;;20.19;56.16;101511.06;5117337;27;45436;-77
2022/08/30 07:23:23;;;;;;;;;6.75;6.75;;;;;20.30;56.08;101516.63;5117545;27;45479;-77
2022/08/30 07:25:49;;;;;;;;;11.00;7.00;;;;;20.40;55.50;101507.19;5116387;27;45435;-78
2022/08/30 07:28:15;;;;;;;;;7.75;7.25;;;;;20.50;55.30;101510.16;5117334;27;45415;-77
2022/08/30 07:30:40;;;;;;;;;8.25;6.50;;;;;20.61;55.64;101514.84;5117338;27;45419;-78
2022/08/30 07:33:06;;;;;;;;;8.75;6.50;;;;;20.69;55.26;101523.19;5092803;27;45549;-78
2022/08/30 07:35:31;;;;;;;;;8.50;6.00;;;;;20.73;55.17;101514.13;5094729;27;45500;-78
2022/08/30 07:37:58;;;;;;;;;11.00;7.00;;;;;20.78;54.45;101506.78;5106317;27;45372;-78
2022/08/30 07:40:23;;;;;;;;;7.75;6.75;;;;;20.80;54.39;101504.00;5104146;27;46462;-77
2022/08/30 07:42:49;;;;;;;;;7.00;6.75;;;;;20.90;54.53;101513.13;5116917;27;45371;-79
2022/08/30 07:45:15;;;;;;;;;9.75;9.50;;;;;20.99;53.09;101514.38;5117302;27;45323;-79
2022/08/30 07:47:40;;;;;;;;;11.00;6.00;;;;;21.05;53.22;101506.88;5082241;27;59965;-78
2022/08/30 07:50:06;;;;;;;;;9.25;6.00;;;;;21.10;52.71;101503.97;5106041;27;45578;-78
2022/08/30 07:52:31;;;;;;;;;8.75;6.00;;;;;21.12;52.09;101502.09;5078692;27;45732;-79
2022/08/30 07:54:58;;;;;;;;;9.00;7.50;;;;;21.10;52.17;101503.09;5096393;27;45359;-79
2022/08/30 07:57:23;;;;;;;;;9.50;7.00;;;;;21.15;51.21;101507.16;5107839;27;67741;-78
2022/08/30 07:59:49;;;;;;;;;7.50;5.75;;;;;21.26;51.40;101515.28;5116546;27;46532;-80
2022/08/30 08:02:15;;;;;;;;;11.00;7.00;;;;;21.32;50.68;101514.09;5097688;27;45427;-78
2022/08/30 08:04:40;;;;;;;;;9.50;6.50;;;;;21.40;50.73;101513.63;5116092;27;45415;-79
2022/08/30 08:07:05;;;;;;;;;4.75;3.75;;;;;21.45;50.37;101511.53;5106547;27;61002;-79
2022/08/30 08:09:32;;;;;;;;;9.00;7.25;;;;;21.55;50.80;101519.78;5109092;27;50755;-79
2022/08/30 08:11:58;;;;;;;;;6.50;5.75;;;;;21.62;51.24;101529.06;5111929;27;45498;-78
2022/08/30 08:14:23;;;;;;;;;5.50;5.00;;;;;21.69;50.28;101521.56;5102529;27;45380;-79
2022/08/30 08:16:49;;;;;;;;;8.00;5.00;;;;;21.80;50.08;101525.25;5110847;27;47810;-81
2022/08/30 08:19:14;;;;;;;;;11.00;7.00;;;;;21.89;50.44;101522.94;5097288;27;45593;-80
2022/08/30 08:21:40;;;;;;;;;8.50;7.00;;;;;21.96;49.69;101526.91;5097925;27;45329;-80
2022/08/30 08:24:06;;;;;;;;;8.75;7.00;;;;;21.96;50.40;101521.59;5116622;27;45364;-80
2022/08/30 08:26:36;;;;;;;;;7.50;6.50;;;;;21.96;49.39;101525.09;5116497;27;45391;-80
2022/08/30 08:29:02;;;;;;;;;9.50;7.75;;;;;22.02;49.99;101535.28;5098003;27;46388;-79
2022/08/30 08:31:28;;;;;;;;;11.25;6.00;;;;;22.02;49.80;101526.50;5097847;27;45670;-80
2022/08/30 08:33:54;;;;;;;;;8.25;7.25;;;;;22.07;48.91;101535.00;5055936;28;68321;-79
2022/08/30 08:36:20;;;;;;;;;10.00;5.75;;;;;22.11;49.39;101541.81;5086593;27;45338;-79
2022/08/30 08:38:45;;;;;;;;;8.50;8.00;;;;;22.09;49.76;101530.44;5095338;27;45374;-79
2022/08/30 08:41:45;;;;;;;;;6.25;6.00;;;;;22.25;49.44;101538.25;5094853;27;73149;-79
2022/08/30 08:44:22;;;;;;;;;7.50;6.00;;;;;22.36;50.77;101542.88;5095563;27;45367;-79
2022/08/30 08:46:56;;;;;;;;;6.75;5.00;;;;;22.49;48.46;101546.44;5097429;27;45433;-79
2022/08/30 08:49:22;;;;;;;;;8.75;6.75;;;;;22.63;47.83;101531.38;5099166;27;47262;-79
2022/08/30 08:54:45;;;;;;;;;9.00;5.75;;;;;23.11;48.66;101556.41;5099218;27;45362;-79
2022/08/30 08:57:10;;;;;;;;;7.75;6.25;;;;;23.29;46.87;101554.31;5098998;27;45467;-79
2022/08/30 08:59:36;;;;;;;;;9.50;8.00;;;;;23.35;47.74;101547.72;5098930;27;45572;-79
2022/08/30 09:02:19;;;;;;;;;8.00;6.75;;;;;23.42;47.21;101546.31;5080606;27;45398;-80
2022/08/30 09:04:45;;;;;;;;;8.25;6.75;;;;;23.52;47.25;101555.31;5080855;27;45388;-79
2022/08/30 09:07:20;;;;;;;;;10.75;7.00;;;;;23.60;46.34;101565.41;5079786;27;63305;-79
2022/08/30 09:09:46;;;;;;;;;9.00;6.50;;;;;23.72;46.74;101567.19;5080434;27;46117;-79
2022/08/30 09:12:12;;;;;;;;;5.50;5.50;;;;;23.85;46.25;101558.38;5080429;27;45519;-79
2022/08/30 09:14:51;;;;;;;;;7.25;7.25;;;;;23.99;45.36;101560.88;5080767;27;45384;-79
2022/08/30 09:17:18;;;;;;;;;6.50;6.00;;;;;24.07;45.78;101560.31;5098536;27;45455;-79
2022/08/30 09:19:45;;;;;;;;;5.25;5.25;;;;;24.18;45.08;101559.53;5080386;27;45517;-79
2022/08/30 09:22:25;;;;;;;;;9.25;7.25;;;;;24.23;45.36;101560.03;5080539;27;45753;-79
2022/08/30 09:25:02;;;;;;;;;7.25;5.75;;;;;24.33;44.57;101563.72;5080497;27;45373;-79
2022/08/30 09:27:34;;;;;;;;;6.25;6.00;;;;;24.39;44.96;101568.59;5098446;27;45408;-79
2022/08/30 09:30:21;;;;;;;;;7.75;7.25;;;;;24.54;45.38;101570.13;5098238;27;46912;-79
2022/08/30 09:33:19;;;;;;;;;7.50;5.75;;;;;24.66;44.53;101568.34;5098406;27;45318;-79
2022/08/30 09:35:47;;;;;;;;;7.00;5.25;;;;;24.78;44.16;101571.06;5080069;27;45431;-79
2022/08/30 09:38:16;;;;;;;;;7.75;6.00;;;;;24.78;43.85;101573.75;5080473;27;45377;-79
2022/08/30 09:40:45;;;;;;;;;6.75;6.00;;;;;24.82;45.08;101570.72;5098322;27;45731;-79
2022/08/30 09:43:16;;;;;;;;;9.75;6.75;;;;;24.94;44.72;101568.91;5080063;27;45735;-79
2022/08/30 09:45:46;;;;;;;;;8.00;7.00;;;;;25.06;44.14;101570.66;5097931;27;45403;-79
2022/08/30 09:48:20;;;;;;;;;8.00;5.00;;;;;25.18;43.63;101570.66;5098335;27;45643;-79
2022/08/30 09:50:50;;;;;;;;;7.25;6.75;;;;;25.21;43.16;101567.78;5098196;27;46609;-79
2022/08/30 09:53:21;;;;;;;;;8.00;7.00;;;;;25.22;43.17;101569.44;5097993;27;45490;-79
2022/08/30 09:56:07;;;;;;;;;11.25;6.00;;;;;25.33;43.04;101571.31;5079796;27;45557;-79
2022/08/30 09:58:42;;;;;;;;;8.00;6.50;;;;;25.43;43.72;101572.28;5079900;27;45406;-79
2022/08/30 10:01:25;;;;;;;;;6.25;6.25;;;;;25.60;43.04;101579.78;5097736;27;46435;-78
2022/08/30 10:04:08;;;;;;;;;6.25;6.25;;;;;25.68;42.58;101581.84;5098259;27;45317;-78
2022/08/30 10:06:43;;;;;;;;;8.00;6.00;;;;;25.72;42.61;101572.63;5086164;27;45475;-78
2022/08/30 10:09:29;;;;;;;;;8.00;7.00;;;;;25.84;42.27;101579.66;5100235;27;45383;-78
2022/08/30 10:12:16;;;;;;;;;8.50;6.00;;;;;25.93;42.69;101582.56;5118582;27;45486;-78
2022/08/30 10:14:55;;;;;;;;;9.75;7.00;;;;;26.04;41.90;101585.25;5099773;27;45412;-78
2022/08/30 10:17:37;;;;;;;;;7.75;7.75;;;;;26.05;41.52;101589.59;5099995;27;45489;-78
2022/08/30 10:20:06;;;;;;;;;6.50;6.25;;;;;26.15;41.88;101579.88;5115672;27;45518;-78
2022/08/30 10:23:11;;;;;;;;;9.50;7.25;;;;;26.27;41.37;101586.00;5118457;27;45611;-78
2022/08/30 10:25:44;;;;;;;;;9.50;9.00;;;;;26.40;41.55;101575.19;5099724;27;47422;-78
2022/08/30 10:28:39;;;;;;;;;7.50;6.75;;;;;26.48;41.29;101577.19;5099589;27;45377;-78
2022/08/30 10:31:10;;;;;;;;;5.25;4.00;;;;;26.50;40.97;101569.91;5118421;27;45372;-78
2022/08/30 10:33:39;;;;;;;;;11.25;6.25;;;;;26.59;41.55;101571.81;5081368;27;46570;-79
2022/08/30 10:36:09;;;;;;;;;9.00;6.50;;;;;26.66;40.88;101581.03;5097170;27;45392;-78
2022/08/30 10:38:37;;;;;;;;;8.00;7.00;;;;;26.58;40.70;101572.81;5079410;27;45408;-78
2022/08/30 10:41:26;;;;;;;;;7.50;6.75;;;;;26.53;39.60;101580.34;5079350;27;45502;-78
2022/08/30 10:44:10;;;;;;;;;9.25;6.25;;;;;26.51;40.56;101577.78;5097192;27;45692;-79
2022/08/30 10:47:09;;;;;;;;;8.75;7.50;;;;;26.62;40.89;101585.78;5078822;27;45394;-79
2022/08/30 10:49:38;;;;;;;;;7.50;7.00;;;;;26.64;40.77;101577.66;5062313;27;45388;-78
2022/08/30 10:52:16;;;;;;;;;6.25;6.00;;;;;26.60;39.75;101587.72;5079194;27;45384;-79
2022/08/30 10:54:53;;;;;;;;;8.50;8.50;;;;;26.59;40.22;101577.16;5097094;27;46251;-79
2022/08/30 10:57:19;;;;;;;;;8.00;7.00;;;;;26.68;41.89;101581.75;5078698;27;45388;-79
2022/08/30 10:59:49;;;;;;;;;9.00;8.00;;;;;26.82;40.39;101577.94;5097262;27;45475;-78
2022/08/30 11:02:28;;;;;;;;;8.00;6.50;;;;;26.87;40.26;101580.19;5097426;27;45340;-79
2022/08/30 11:05:30;;;;;;;;;9.50;6.75;;;;;26.89;40.95;101578.25;5097046;27;45386;-79
2022/08/30 11:07:58;;;;;;;;;8.50;6.50;;;;;26.96;39.99;101584.75;5096950;27;45488;-78
2022/08/30 11:10:38;;;;;;;;;7.25;6.00;;;;;26.99;40.37;101582.66;5096715;27;45336;-78
2022/08/30 11:13:38;;;;;;;;;8.75;8.00;;;;;26.97;39.10;101578.44;5097063;27;45412;-78
2022/08/30 11:16:06;;;;;;;;;8.50;7.00;;;;;27.04;39.78;101572.44;5094336;27;47220;-78
2022/08/30 11:18:41;;;;;;;;;8.50;6.50;;;;;27.15;39.29;101579.50;5096869;27;46240;-78
2022/08/30 11:21:31;;;;;;;;;12.25;9.00;;;;;27.23;39.39;101579.72;5078850;27;45386;-79
2022/08/30 11:24:07;;;;;;;;;7.50;6.00;;;;;27.32;39.20;101588.81;5096924;27;45319;-79
2022/08/30 11:26:48;;;;;;;;;5.75;5.75;;;;;27.38;38.36;101576.72;5078397;27;45688;-80
2022/08/30 11:29:28;;;;;;;;;7.00;6.50;;;;;27.47;38.24;101581.28;5096625;27;45822;-79
2022/08/30 11:31:59;;;;;;;;;9.00;8.75;;;;;27.61;38.12;101577.38;5096692;27;45371;-80
2022/08/30 11:34:43;;;;;;;;;29.50;21.50;;;;;27.82;38.31;101571.94;5096814;27;45376;-80
2022/08/30 11:37:10;;;;;;;;;7.25;6.75;;;;;27.95;37.49;101569.91;5096238;27;45569;-83